sensor_id;sensor_type;location;lat;lon;timestamp;pressure;altitude;pressure_sealevel;temperature;humidity
550;BME280;20066;48.764;9.176;2022-08-05T00:00:53;97741.47;;;28.97;42.17
550;BME280;20066;48.764;9.176;2022-08-05T00:03:26;97737.66;;;28.41;41.75
550;BME280;20066;48.764;9.176;2022-08-05T00:05:57;97738.56;;;28.60;41.26
550;BME280;20066;48.764;9.176;2022-08-05T00:08:46;97745.22;;;28.40;42.89
550;BME280;20066;48.764;9.176;2022-08-05T00:11:18;97743.44;;;28.48;41.39
550;BME280;20066;48.764;9.176;2022-08-05T00:13:56;97749.81;;;28.32;42.64
550;BME280;20066;48.764;9.176;2022-08-05T00:16:24;97750.09;;;28.28;43.04
550;BME280;20066;48.764;9.176;2022-08-05T00:19:02;97749.00;;;28.07;43.19
550;BME280;20066;48.764;9.176;2022-08-05T00:21:31;97759.00;;;28.81;42.36
550;BME280;20066;48.764;9.176;2022-08-05T00:24:03;97758.91;;;28.92;41.26
550;BME280;20066;48.764;9.176;2022-08-05T00:26:36;97758.94;;;28.87;40.68
550;BME280;20066;48.764;9.176;2022-08-05T00:29:12;97743.97;;;28.71;41.83
550;BME280;20066;48.764;9.176;2022-08-05T00:31:39;97742.78;;;28.91;41.05
550;BME280;20066;48.764;9.176;2022-08-05T00:34:27;97747.75;;;28.98;41.38
550;BME280;20066;48.764;9.176;2022-08-05T00:37:15;97767.88;;;29.04;41.77
550;BME280;20066;48.764;9.176;2022-08-05T00:39:47;97759.06;;;28.76;42.84
550;BME280;20066;48.764;9.176;2022-08-05T00:42:31;97770.53;;;28.55;41.45
550;BME280;20066;48.764;9.176;2022-08-05T00:44:59;97777.63;;;28.81;40.63
550;BME280;20066;48.764;9.176;2022-08-05T00:47:27;97774.72;;;28.97;41.17
550;BME280;20066;48.764;9.176;2022-08-05T00:50:15;97782.69;;;28.47;41.00
550;BME280;20066;48.764;9.176;2022-08-05T00:52:42;97779.25;;;28.35;42.13
550;BME280;20066;48.764;9.176;2022-08-05T00:55:13;97782.47;;;28.75;42.15
550;BME280;20066;48.764;9.176;2022-08-05T00:57:41;97796.31;;;28.39;43.29
550;BME280;20066;48.764;9.176;2022-08-05T01:00:24;97806.97;;;28.24;41.79
550;BME280;20066;48.764;9.176;2022-08-05T01:02:53;97813.81;;;28.17;42.49
550;BME280;20066;48.764;9.176;2022-08-05T01:05:21;97821.72;;;27.96;43.93
550;BME280;20066;48.764;9.176;2022-08-05T01:07:50;97824.69;;;27.02;44.70
550;BME280;20066;48.764;9.176;2022-08-05T01:10:51;97821.44;;;27.20;42.60
550;BME280;20066;48.764;9.176;2022-08-05T01:13:25;97829.44;;;27.40;39.61
550;BME280;20066;48.764;9.176;2022-08-05T01:16:21;97824.41;;;28.13;39.29
550;BME280;20066;48.764;9.176;2022-08-05T01:18:57;97838.97;;;28.19;38.30
550;BME280;20066;48.764;9.176;2022-08-05T01:21:42;97834.34;;;28.33;37.60
550;BME280;20066;48.764;9.176;2022-08-05T01:24:25;97842.13;;;27.88;39.07
550;BME280;20066;48.764;9.176;2022-08-05T01:27:10;97850.44;;;27.77;38.94
550;BME280;20066;48.764;9.176;2022-08-05T01:29:49;97846.63;;;27.96;39.94
550;BME280;20066;48.764;9.176;2022-08-05T01:32:24;97857.97;;;27.87;39.63
550;BME280;20066;48.764;9.176;2022-08-05T01:34:58;97859.53;;;28.29;38.96
550;BME280;20066;48.764;9.176;2022-08-05T01:37:31;97866.66;;;28.08;39.35
550;BME280;20066;48.764;9.176;2022-08-05T01:40:10;97868.25;;;28.50;39.04
550;BME280;20066;48.764;9.176;2022-08-05T01:42:44;97873.94;;;28.17;39.55
550;BME280;20066;48.764;9.176;2022-08-05T01:45:15;97880.84;;;28.40;39.56
550;BME280;20066;48.764;9.176;2022-08-05T01:47:47;97884.13;;;27.75;41.21
550;BME280;20066;48.764;9.176;2022-08-05T01:50:24;97888.34;;;27.93;40.66
550;BME280;20066;48.764;9.176;2022-08-05T01:52:59;97895.44;;;28.41;39.95
550;BME280;20066;48.764;9.176;2022-08-05T01:55:31;97886.75;;;28.66;40.49
550;BME280;20066;48.764;9.176;2022-08-05T01:58:03;97889.44;;;27.62;41.93
550;BME280;20066;48.764;9.176;2022-08-05T02:00:44;97884.84;;;27.92;41.60
550;BME280;20066;48.764;9.176;2022-08-05T02:03:18;97889.22;;;27.43;42.21
550;BME280;20066;48.764;9.176;2022-08-05T02:05:58;97877.19;;;27.35;42.70
550;BME280;20066;48.764;9.176;2022-08-05T02:08:47;97878.13;;;28.34;41.29
550;BME280;20066;48.764;9.176;2022-08-05T02:11:24;97874.41;;;27.13;43.38
550;BME280;20066;48.764;9.176;2022-08-05T02:14:02;97873.84;;;27.65;42.57
550;BME280;20066;48.764;9.176;2022-08-05T02:16:37;97878.06;;;27.88;43.17
550;BME280;20066;48.764;9.176;2022-08-05T02:19:11;97866.03;;;28.32;40.88
550;BME280;20066;48.764;9.176;2022-08-05T02:21:44;97876.00;;;28.57;42.10
550;BME280;20066;48.764;9.176;2022-08-05T02:24:17;97872.19;;;28.08;42.16
550;BME280;20066;48.764;9.176;2022-08-05T02:26:50;97880.44;;;27.50;43.07
550;BME280;20066;48.764;9.176;2022-08-05T02:29:22;97883.72;;;27.32;43.65
550;BME280;20066;48.764;9.176;2022-08-05T02:32:14;97879.44;;;27.53;43.16
550;BME280;20066;48.764;9.176;2022-08-05T02:34:54;97877.06;;;27.91;43.24
550;BME280;20066;48.764;9.176;2022-08-05T02:37:27;97878.34;;;27.90;42.27
550;BME280;20066;48.764;9.176;2022-08-05T02:39:57;97878.59;;;27.75;42.78
550;BME280;20066;48.764;9.176;2022-08-05T02:42:26;97874.41;;;27.02;44.67
550;BME280;20066;48.764;9.176;2022-08-05T02:45:02;97879.97;;;27.30;44.14
550;BME280;20066;48.764;9.176;2022-08-05T02:47:34;97886.72;;;27.45;43.76
550;BME280;20066;48.764;9.176;2022-08-05T02:50:23;97894.50;;;26.86;45.19
550;BME280;20066;48.764;9.176;2022-08-05T02:52:52;97881.19;;;26.84;45.06
550;BME280;20066;48.764;9.176;2022-08-05T02:55:21;97883.69;;;27.60;43.31
550;BME280;20066;48.764;9.176;2022-08-05T02:58:12;97889.84;;;28.05;42.29
550;BME280;20066;48.764;9.176;2022-08-05T03:00:41;97881.84;;;28.48;41.58
550;BME280;20066;48.764;9.176;2022-08-05T03:03:13;97880.41;;;28.30;41.47
550;BME280;20066;48.764;9.176;2022-08-05T03:05:43;97879.34;;;28.39;41.55
550;BME280;20066;48.764;9.176;2022-08-05T03:08:32;97888.78;;;28.66;41.61
550;BME280;20066;48.764;9.176;2022-08-05T03:11:01;97899.03;;;28.77;41.62
550;BME280;20066;48.764;9.176;2022-08-05T03:13:49;97915.06;;;28.43;41.73
550;BME280;20066;48.764;9.176;2022-08-05T03:16:28;97915.06;;;28.43;41.44
550;BME280;20066;48.764;9.176;2022-08-05T03:18:58;97915.09;;;28.37;41.55
550;BME280;20066;48.764;9.176;2022-08-05T03:21:29;97906.50;;;28.52;42.37
550;BME280;20066;48.764;9.176;2022-08-05T03:24:07;97911.06;;;28.38;42.30
550;BME280;20066;48.764;9.176;2022-08-05T03:26:38;97917.31;;;27.92;43.22
550;BME280;20066;48.764;9.176;2022-08-05T03:29:11;97920.00;;;28.03;43.23
550;BME280;20066;48.764;9.176;2022-08-05T03:31:44;97924.69;;;28.25;42.59
550;BME280;20066;48.764;9.176;2022-08-05T03:34:24;97922.56;;;28.59;42.83
550;BME280;20066;48.764;9.176;2022-08-05T03:36:54;97913.31;;;28.40;42.31
550;BME280;20066;48.764;9.176;2022-08-05T03:39:22;97909.00;;;28.50;43.03
550;BME280;20066;48.764;9.176;2022-08-05T03:41:53;97912.59;;;28.33;42.12
550;BME280;20066;48.764;9.176;2022-08-05T03:44:22;97905.94;;;28.59;43.58
550;BME280;20066;48.764;9.176;2022-08-05T03:46:50;97916.06;;;28.51;42.97
550;BME280;20066;48.764;9.176;2022-08-05T03:49:17;97916.72;;;28.10;42.99
550;BME280;20066;48.764;9.176;2022-08-05T03:51:55;97912.75;;;27.78;43.63
550;BME280;20066;48.764;9.176;2022-08-05T03:54:49;97903.91;;;28.07;44.97
550;BME280;20066;48.764;9.176;2022-08-05T03:57:38;97883.47;;;26.97;46.20
550;BME280;20066;48.764;9.176;2022-08-05T04:00:12;97875.94;;;27.03;46.27
550;BME280;20066;48.764;9.176;2022-08-05T04:02:44;97884.66;;;27.63;44.61
550;BME280;20066;48.764;9.176;2022-08-05T04:05:26;97889.38;;;27.84;44.65
550;BME280;20066;48.764;9.176;2022-08-05T04:08:04;97899.78;;;27.50;44.71
550;BME280;20066;48.764;9.176;2022-08-05T04:10:53;97900.28;;;26.88;46.62
550;BME280;20066;48.764;9.176;2022-08-05T04:13:23;97904.56;;;27.11;46.17
550;BME280;20066;48.764;9.176;2022-08-05T04:16:12;97912.84;;;27.33;45.62
550;BME280;20066;48.764;9.176;2022-08-05T04:18:40;97911.03;;;27.69;47.01
550;BME280;20066;48.764;9.176;2022-08-05T04:21:19;97912.59;;;27.37;45.64
550;BME280;20066;48.764;9.176;2022-08-05T04:24:10;97919.84;;;27.23;46.16
550;BME280;20066;48.764;9.176;2022-08-05T04:26:47;97923.13;;;27.66;45.30
550;BME280;20066;48.764;9.176;2022-08-05T04:29:15;97927.03;;;26.54;47.50
550;BME280;20066;48.764;9.176;2022-08-05T04:31:43;97958.81;;;27.14;46.61
550;BME280;20066;48.764;9.176;2022-08-05T04:34:13;97980.38;;;27.15;45.78
550;BME280;20066;48.764;9.176;2022-08-05T04:36:59;97986.97;;;27.29;46.87
550;BME280;20066;48.764;9.176;2022-08-05T04:39:30;97981.44;;;27.35;46.18
550;BME280;20066;48.764;9.176;2022-08-05T04:42:00;97994.91;;;26.94;46.61
550;BME280;20066;48.764;9.176;2022-08-05T04:44:29;98006.31;;;27.29;45.97
550;BME280;20066;48.764;9.176;2022-08-05T04:46:57;98017.25;;;26.90;46.97
550;BME280;20066;48.764;9.176;2022-08-05T04:49:25;98020.91;;;26.65;47.56
550;BME280;20066;48.764;9.176;2022-08-05T04:52:13;98036.09;;;26.97;46.56
550;BME280;20066;48.764;9.176;2022-08-05T04:54:42;98054.03;;;27.35;46.13
550;BME280;20066;48.764;9.176;2022-08-05T04:57:10;98031.44;;;27.53;47.30
550;BME280;20066;48.764;9.176;2022-08-05T04:59:39;98029.88;;;27.13;46.25
550;BME280;20066;48.764;9.176;2022-08-05T05:02:07;98043.72;;;26.60;47.52
550;BME280;20066;48.764;9.176;2022-08-05T05:04:55;98079.56;;;27.08;46.86
550;BME280;20066;48.764;9.176;2022-08-05T05:07:28;98114.00;;;27.18;46.26
550;BME280;20066;48.764;9.176;2022-08-05T05:09:59;98116.50;;;27.16;46.91
550;BME280;20066;48.764;9.176;2022-08-05T05:12:29;98118.69;;;27.01;47.56
550;BME280;20066;48.764;9.176;2022-08-05T05:14:57;98120.16;;;26.85;47.76
550;BME280;20066;48.764;9.176;2022-08-05T05:17:35;98108.41;;;27.01;47.40
550;BME280;20066;48.764;9.176;2022-08-05T05:20:23;98112.94;;;26.99;48.62
550;BME280;20066;48.764;9.176;2022-08-05T05:22:54;98112.38;;;27.65;45.42
550;BME280;20066;48.764;9.176;2022-08-05T05:25:24;98117.66;;;27.69;45.33
550;BME280;20066;48.764;9.176;2022-08-05T05:28:06;98131.72;;;27.82;45.51
550;BME280;20066;48.764;9.176;2022-08-05T05:30:34;98119.19;;;28.09;45.33
550;BME280;20066;48.764;9.176;2022-08-05T05:33:04;98129.22;;;27.84;44.80
550;BME280;20066;48.764;9.176;2022-08-05T05:35:42;98129.25;;;28.01;44.31
550;BME280;20066;48.764;9.176;2022-08-05T05:38:10;98136.28;;;28.18;43.91
550;BME280;20066;48.764;9.176;2022-08-05T05:40:41;98131.22;;;27.72;46.20
550;BME280;20066;48.764;9.176;2022-08-05T05:43:17;98140.56;;;28.08;44.59
550;BME280;20066;48.764;9.176;2022-08-05T05:46:05;98153.09;;;27.76;45.04
550;BME280;20066;48.764;9.176;2022-08-05T05:48:41;98152.03;;;26.86;47.61
550;BME280;20066;48.764;9.176;2022-08-05T05:51:10;98161.22;;;26.66;48.39
550;BME280;20066;48.764;9.176;2022-08-05T05:53:41;98166.63;;;27.63;46.41
550;BME280;20066;48.764;9.176;2022-08-05T05:56:26;98175.22;;;27.76;45.67
550;BME280;20066;48.764;9.176;2022-08-05T05:59:01;98173.50;;;26.65;48.57
550;BME280;20066;48.764;9.176;2022-08-05T06:01:31;98169.44;;;27.68;45.97
550;BME280;20066;48.764;9.176;2022-08-05T06:04:04;98174.69;;;27.72;45.81
550;BME280;20066;48.764;9.176;2022-08-05T06:06:32;98176.97;;;27.03;47.46
550;BME280;20066;48.764;9.176;2022-08-05T06:09:00;98186.19;;;27.48;47.09
550;BME280;20066;48.764;9.176;2022-08-05T06:11:31;98189.00;;;27.65;46.68
550;BME280;20066;48.764;9.176;2022-08-05T06:13:59;98182.38;;;27.29;46.32
550;BME280;20066;48.764;9.176;2022-08-05T06:16:27;98177.53;;;27.18;47.10
550;BME280;20066;48.764;9.176;2022-08-05T06:19:03;98165.22;;;27.95;44.98
550;BME280;20066;48.764;9.176;2022-08-05T06:21:34;98165.88;;;27.45;45.85
550;BME280;20066;48.764;9.176;2022-08-05T06:24:04;98156.75;;;27.28;45.90
550;BME280;20066;48.764;9.176;2022-08-05T06:26:38;98155.84;;;27.65;45.92
550;BME280;20066;48.764;9.176;2022-08-05T06:29:18;98158.59;;;27.70;45.07
550;BME280;20066;48.764;9.176;2022-08-05T06:32:06;98164.94;;;28.60;44.63
550;BME280;20066;48.764;9.176;2022-08-05T06:34:54;98155.88;;;28.43;43.21
550;BME280;20066;48.764;9.176;2022-08-05T06:37:24;98150.13;;;27.96;44.37
550;BME280;20066;48.764;9.176;2022-08-05T06:40:12;98157.13;;;27.75;44.96
550;BME280;20066;48.764;9.176;2022-08-05T06:42:48;98154.00;;;27.34;45.70
550;BME280;20066;48.764;9.176;2022-08-05T06:45:19;98155.06;;;27.53;45.27
550;BME280;20066;48.764;9.176;2022-08-05T06:48:07;98145.38;;;27.15;46.98
550;BME280;20066;48.764;9.176;2022-08-05T06:50:55;98153.13;;;28.26;44.51
550;BME280;20066;48.764;9.176;2022-08-05T06:53:23;98158.91;;;27.07;46.34
550;BME280;20066;48.764;9.176;2022-08-05T06:55:54;98157.34;;;27.60;44.98
550;BME280;20066;48.764;9.176;2022-08-05T06:58:24;98158.69;;;28.20;43.40
550;BME280;20066;48.764;9.176;2022-08-05T07:01:03;98154.50;;;28.94;41.60
550;BME280;20066;48.764;9.176;2022-08-05T07:03:32;98157.91;;;28.42;42.46
550;BME280;20066;48.764;9.176;2022-08-05T07:06:02;98156.66;;;28.60;42.38
550;BME280;20066;48.764;9.176;2022-08-05T07:08:40;98176.78;;;28.55;41.63
550;BME280;20066;48.764;9.176;2022-08-05T07:11:13;98180.53;;;28.41;43.51
550;BME280;20066;48.764;9.176;2022-08-05T07:13:43;98190.63;;;27.99;44.62
550;BME280;20066;48.764;9.176;2022-08-05T07:16:29;98196.13;;;27.17;44.49
550;BME280;20066;48.764;9.176;2022-08-05T07:19:35;98196.66;;;27.92;42.71
550;BME280;20066;48.764;9.176;2022-08-05T07:22:23;98205.13;;;27.72;44.25
550;BME280;20066;48.764;9.176;2022-08-05T07:24:55;98197.41;;;28.26;42.82
550;BME280;20066;48.764;9.176;2022-08-05T07:27:23;98204.22;;;28.14;42.33
550;BME280;20066;48.764;9.176;2022-08-05T07:29:56;98214.03;;;27.33;43.86
550;BME280;20066;48.764;9.176;2022-08-05T07:32:44;98210.16;;;27.68;43.22
550;BME280;20066;48.764;9.176;2022-08-05T07:35:18;98218.72;;;29.15;41.26
550;BME280;20066;48.764;9.176;2022-08-05T07:38:06;98212.50;;;29.61;40.42
550;BME280;20066;48.764;9.176;2022-08-05T07:40:51;98205.50;;;30.31;38.44
550;BME280;20066;48.764;9.176;2022-08-05T07:43:27;98213.94;;;30.14;37.87
550;BME280;20066;48.764;9.176;2022-08-05T07:45:56;98222.41;;;31.73;35.29
550;BME280;20066;48.764;9.176;2022-08-05T07:48:24;98210.03;;;29.93;38.29
550;BME280;20066;48.764;9.176;2022-08-05T07:51:12;98212.34;;;30.84;37.86
550;BME280;20066;48.764;9.176;2022-08-05T07:54:01;98208.41;;;30.98;36.61
550;BME280;20066;48.764;9.176;2022-08-05T07:56:29;98209.69;;;31.40;34.65
550;BME280;20066;48.764;9.176;2022-08-05T07:59:16;98219.31;;;31.39;35.16
550;BME280;20066;48.764;9.176;2022-08-05T08:01:58;98212.78;;;30.88;34.10
550;BME280;20066;48.764;9.176;2022-08-05T08:04:28;98220.63;;;30.89;35.42
550;BME280;20066;48.764;9.176;2022-08-05T08:07:03;98219.72;;;32.37;33.01
550;BME280;20066;48.764;9.176;2022-08-05T08:09:33;98214.59;;;33.26;32.65
550;BME280;20066;48.764;9.176;2022-08-05T08:12:06;98219.03;;;30.04;34.11
550;BME280;20066;48.764;9.176;2022-08-05T08:14:53;98215.47;;;30.15;35.06
550;BME280;20066;48.764;9.176;2022-08-05T08:17:23;98216.59;;;31.33;34.02
550;BME280;20066;48.764;9.176;2022-08-05T08:19:53;98214.53;;;30.91;33.12
550;BME280;20066;48.764;9.176;2022-08-05T08:22:41;98211.25;;;33.27;29.34
550;BME280;20066;48.764;9.176;2022-08-05T08:25:09;98216.91;;;33.21;31.16
550;BME280;20066;48.764;9.176;2022-08-05T08:27:43;98213.28;;;33.87;28.16
550;BME280;20066;48.764;9.176;2022-08-05T08:30:16;98220.53;;;34.86;30.09
550;BME280;20066;48.764;9.176;2022-08-05T08:33:08;98210.44;;;35.55;30.11
550;BME280;20066;48.764;9.176;2022-08-05T08:35:40;98212.31;;;35.60;27.93
550;BME280;20066;48.764;9.176;2022-08-05T08:38:27;98209.63;;;32.02;31.16
550;BME280;20066;48.764;9.176;2022-08-05T08:41:04;98203.22;;;33.10;33.89
550;BME280;20066;48.764;9.176;2022-08-05T08:43:35;98200.31;;;32.31;31.08
550;BME280;20066;48.764;9.176;2022-08-05T08:46:25;98194.53;;;31.17;33.04
550;BME280;20066;48.764;9.176;2022-08-05T08:48:56;98186.91;;;32.30;34.70
550;BME280;20066;48.764;9.176;2022-08-05T08:51:46;98182.69;;;32.68;30.76
550;BME280;20066;48.764;9.176;2022-08-05T08:54:32;98170.88;;;33.88;30.54
550;BME280;20066;48.764;9.176;2022-08-05T08:57:04;98171.88;;;33.78;32.07
550;BME280;20066;48.764;9.176;2022-08-05T08:59:37;98172.22;;;35.22;28.94
550;BME280;20066;48.764;9.176;2022-08-05T09:02:12;98170.97;;;35.30;28.94
550;BME280;20066;48.764;9.176;2022-08-05T09:04:43;98179.94;;;35.36;28.70
550;BME280;20066;48.764;9.176;2022-08-05T09:07:32;98175.53;;;35.56;29.51
550;BME280;20066;48.764;9.176;2022-08-05T09:10:20;98180.25;;;35.69;25.84
550;BME280;20066;48.764;9.176;2022-08-05T09:12:55;98172.09;;;35.94;25.64
550;BME280;20066;48.764;9.176;2022-08-05T09:15:30;98170.59;;;36.00;26.56
550;BME280;20066;48.764;9.176;2022-08-05T09:18:05;98156.69;;;34.28;27.02
550;BME280;20066;48.764;9.176;2022-08-05T09:20:35;98145.59;;;33.60;29.24
550;BME280;20066;48.764;9.176;2022-08-05T09:23:05;98147.81;;;35.30;27.90
550;BME280;20066;48.764;9.176;2022-08-05T09:25:36;98145.06;;;36.57;25.16
550;BME280;20066;48.764;9.176;2022-08-05T09:28:24;98145.06;;;36.19;24.23
550;BME280;20066;48.764;9.176;2022-08-05T09:31:01;98151.00;;;36.61;25.58
550;BME280;20066;48.764;9.176;2022-08-05T09:33:52;98138.53;;;34.99;25.10
550;BME280;20066;48.764;9.176;2022-08-05T09:36:24;98148.41;;;36.40;27.03
550;BME280;20066;48.764;9.176;2022-08-05T09:39:12;98145.25;;;36.59;24.66
550;BME280;20066;48.764;9.176;2022-08-05T09:42:02;98130.97;;;36.80;23.26
550;BME280;20066;48.764;9.176;2022-08-05T09:44:35;98131.19;;;35.83;24.31
550;BME280;20066;48.764;9.176;2022-08-05T09:47:08;98134.94;;;37.24;24.29
550;BME280;20066;48.764;9.176;2022-08-05T09:49:40;98122.06;;;37.54;26.22
550;BME280;20066;48.764;9.176;2022-08-05T09:52:31;98127.03;;;36.83;23.40
550;BME280;20066;48.764;9.176;2022-08-05T09:55:00;98121.97;;;37.36;22.79
550;BME280;20066;48.764;9.176;2022-08-05T09:57:48;98126.25;;;37.37;22.69
550;BME280;20066;48.764;9.176;2022-08-05T10:00:23;98132.16;;;38.56;24.61
550;BME280;20066;48.764;9.176;2022-08-05T10:02:52;98129.06;;;36.90;25.96
550;BME280;20066;48.764;9.176;2022-08-05T10:05:25;98129.31;;;36.54;23.01
550;BME280;20066;48.764;9.176;2022-08-05T10:07:56;98133.41;;;37.31;22.35
550;BME280;20066;48.764;9.176;2022-08-05T10:10:46;98128.38;;;38.44;21.77
550;BME280;20066;48.764;9.176;2022-08-05T10:13:28;98119.84;;;36.27;24.42
550;BME280;20066;48.764;9.176;2022-08-05T10:16:30;98121.00;;;33.92;27.48
550;BME280;20066;48.764;9.176;2022-08-05T10:19:00;98114.59;;;34.54;26.37
550;BME280;20066;48.764;9.176;2022-08-05T10:21:35;98114.72;;;34.69;25.84
550;BME280;20066;48.764;9.176;2022-08-05T10:24:08;98100.97;;;34.02;26.18
550;BME280;20066;48.764;9.176;2022-08-05T10:26:40;98102.38;;;34.65;26.78
550;BME280;20066;48.764;9.176;2022-08-05T10:29:19;98099.84;;;34.82;27.21
550;BME280;20066;48.764;9.176;2022-08-05T10:32:08;98105.13;;;35.44;24.53
550;BME280;20066;48.764;9.176;2022-08-05T10:34:56;98104.03;;;34.68;25.56
550;BME280;20066;48.764;9.176;2022-08-05T10:37:27;98108.22;;;36.22;23.43
550;BME280;20066;48.764;9.176;2022-08-05T10:40:19;98102.41;;;36.51;23.16
550;BME280;20066;48.764;9.176;2022-08-05T10:42:58;98104.28;;;37.59;22.17
550;BME280;20066;48.764;9.176;2022-08-05T10:45:30;98108.56;;;37.60;22.13
550;BME280;20066;48.764;9.176;2022-08-05T10:48:31;98103.78;;;37.45;22.28
550;BME280;20066;48.764;9.176;2022-08-05T10:51:20;98100.41;;;39.42;20.23
550;BME280;20066;48.764;9.176;2022-08-05T10:53:56;98095.59;;;37.97;21.99
550;BME280;20066;48.764;9.176;2022-08-05T10:56:29;98104.59;;;41.48;19.25
550;BME280;20066;48.764;9.176;2022-08-05T10:59:04;98105.00;;;42.90;21.63
550;BME280;20066;48.764;9.176;2022-08-05T11:02:05;98100.25;;;44.30;16.66
550;BME280;20066;48.764;9.176;2022-08-05T11:04:42;98115.63;;;46.73;15.19
550;BME280;20066;48.764;9.176;2022-08-05T11:07:11;98110.81;;;47.99;13.29
550;BME280;20066;48.764;9.176;2022-08-05T11:09:45;98105.44;;;44.82;15.31
550;BME280;20066;48.764;9.176;2022-08-05T11:12:44;98108.97;;;48.22;14.53
550;BME280;20066;48.764;9.176;2022-08-05T11:15:22;98108.13;;;49.23;12.17
550;BME280;20066;48.764;9.176;2022-08-05T11:18:24;98103.31;;;46.14;14.19
550;BME280;20066;48.764;9.176;2022-08-05T11:20:52;98106.19;;;46.00;15.49
550;BME280;20066;48.764;9.176;2022-08-05T11:23:31;98106.78;;;44.81;15.20
550;BME280;20066;48.764;9.176;2022-08-05T11:26:20;98112.97;;;43.15;20.27
550;BME280;20066;48.764;9.176;2022-08-05T11:29:00;98107.22;;;41.56;17.80
550;BME280;20066;48.764;9.176;2022-08-05T11:31:37;98110.28;;;45.97;15.03
550;BME280;20066;48.764;9.176;2022-08-05T11:34:39;98111.34;;;45.90;14.48
550;BME280;20066;48.764;9.176;2022-08-05T11:40:59;98109.41;;;43.82;19.02
550;BME280;20066;48.764;9.176;2022-08-05T11:43:55;98106.19;;;42.54;17.11
550;BME280;20066;48.764;9.176;2022-08-05T11:46:36;98099.25;;;39.54;21.61
550;BME280;20066;48.764;9.176;2022-08-05T11:49:24;98092.66;;;37.55;21.69
550;BME280;20066;48.764;9.176;2022-08-05T11:51:53;98092.28;;;37.83;22.01
550;BME280;20066;48.764;9.176;2022-08-05T11:54:24;98097.97;;;39.92;19.68
550;BME280;20066;48.764;9.176;2022-08-05T11:57:00;98095.28;;;38.52;20.87
550;BME280;20066;48.764;9.176;2022-08-05T11:59:34;98084.25;;;37.80;21.85
550;BME280;20066;48.764;9.176;2022-08-05T12:02:22;98082.88;;;38.13;22.83
550;BME280;20066;48.764;9.176;2022-08-05T12:04:59;98082.16;;;43.09;17.25
550;BME280;20066;48.764;9.176;2022-08-05T12:07:34;98084.63;;;43.71;18.06
550;BME280;20066;48.764;9.176;2022-08-05T12:10:25;98084.72;;;39.75;20.86
550;BME280;20066;48.764;9.176;2022-08-05T12:13:15;98078.81;;;40.65;20.47
550;BME280;20066;48.764;9.176;2022-08-05T12:16:04;98087.72;;;41.10;20.84
550;BME280;20066;48.764;9.176;2022-08-05T12:18:42;98077.22;;;38.72;22.75
550;BME280;20066;48.764;9.176;2022-08-05T12:21:20;98064.25;;;33.97;27.21
550;BME280;20066;48.764;9.176;2022-08-05T12:23:54;98062.81;;;33.42;28.45
550;BME280;20066;48.764;9.176;2022-08-05T12:26:33;98070.75;;;34.78;26.91
550;BME280;20066;48.764;9.176;2022-08-05T12:29:03;98063.56;;;35.56;25.55
550;BME280;20066;48.764;9.176;2022-08-05T12:31:37;98068.25;;;37.32;24.58
550;BME280;20066;48.764;9.176;2022-08-05T12:34:13;98061.31;;;35.62;25.18
550;BME280;20066;48.764;9.176;2022-08-05T12:36:48;98059.88;;;33.13;28.54
550;BME280;20066;48.764;9.176;2022-08-05T12:39:18;98059.69;;;34.36;27.46
550;BME280;20066;48.764;9.176;2022-08-05T12:41:46;98061.16;;;34.29;28.27
550;BME280;20066;48.764;9.176;2022-08-05T12:44:24;98057.38;;;33.98;27.97
550;BME280;20066;48.764;9.176;2022-08-05T12:47:00;98055.94;;;34.62;27.14
550;BME280;20066;48.764;9.176;2022-08-05T12:49:40;98046.72;;;35.33;26.77
550;BME280;20066;48.764;9.176;2022-08-05T12:52:30;98051.44;;;35.76;25.68
550;BME280;20066;48.764;9.176;2022-08-05T12:55:19;98050.03;;;36.53;24.95
550;BME280;20066;48.764;9.176;2022-08-05T12:57:50;98047.81;;;34.43;27.50
550;BME280;20066;48.764;9.176;2022-08-05T13:00:42;98047.69;;;36.27;25.81
550;BME280;20066;48.764;9.176;2022-08-05T13:03:33;98040.44;;;35.78;26.22
550;BME280;20066;48.764;9.176;2022-08-05T13:06:13;98046.63;;;38.76;23.42
550;BME280;20066;48.764;9.176;2022-08-05T13:08:42;98046.22;;;35.88;24.87
550;BME280;20066;48.764;9.176;2022-08-05T13:11:18;98046.06;;;33.62;28.30
550;BME280;20066;48.764;9.176;2022-08-05T13:14:20;98037.03;;;34.83;27.17
550;BME280;20066;48.764;9.176;2022-08-05T13:17:06;98045.09;;;35.76;25.71
550;BME280;20066;48.764;9.176;2022-08-05T13:19:36;98040.25;;;38.59;22.79
550;BME280;20066;48.764;9.176;2022-08-05T13:22:20;98034.28;;;35.95;25.03
550;BME280;20066;48.764;9.176;2022-08-05T13:24:55;98032.31;;;36.58;25.53
550;BME280;20066;48.764;9.176;2022-08-05T13:27:27;98033.41;;;35.11;26.32
550;BME280;20066;48.764;9.176;2022-08-05T13:30:05;98036.19;;;33.61;28.00
550;BME280;20066;48.764;9.176;2022-08-05T13:32:53;98034.47;;;35.00;27.25
550;BME280;20066;48.764;9.176;2022-08-05T13:35:21;98033.91;;;34.94;27.41
550;BME280;20066;48.764;9.176;2022-08-05T13:38:10;98018.66;;;34.67;27.56
550;BME280;20066;48.764;9.176;2022-08-05T13:40:57;98022.56;;;34.28;28.35
550;BME280;20066;48.764;9.176;2022-08-05T13:43:25;98015.22;;;34.46;26.53
550;BME280;20066;48.764;9.176;2022-08-05T13:46:13;98013.50;;;37.73;24.12
550;BME280;20066;48.764;9.176;2022-08-05T13:49:02;98013.66;;;36.31;24.53
550;BME280;20066;48.764;9.176;2022-08-05T13:51:36;98009.44;;;36.70;23.93
550;BME280;20066;48.764;9.176;2022-08-05T13:54:08;98010.22;;;37.85;22.89
550;BME280;20066;48.764;9.176;2022-08-05T13:56:38;98006.94;;;36.34;25.32
550;BME280;20066;48.764;9.176;2022-08-05T13:59:16;98016.31;;;36.13;24.87
550;BME280;20066;48.764;9.176;2022-08-05T14:01:46;98008.31;;;35.57;25.26
550;BME280;20066;48.764;9.176;2022-08-05T14:04:25;98005.63;;;36.35;25.17
550;BME280;20066;48.764;9.176;2022-08-05T14:07:15;98003.63;;;35.51;25.60
550;BME280;20066;48.764;9.176;2022-08-05T14:10:06;98004.44;;;37.33;24.41
550;BME280;20066;48.764;9.176;2022-08-05T14:12:34;97996.50;;;37.14;23.95
550;BME280;20066;48.764;9.176;2022-08-05T14:15:03;98004.22;;;39.55;21.55
550;BME280;20066;48.764;9.176;2022-08-05T14:17:51;98008.66;;;36.77;23.83
550;BME280;20066;48.764;9.176;2022-08-05T14:20:20;98004.97;;;35.66;26.57